Time;durP1;ratioP1;P1;durP2;ratioP2;P2;SDS_P1;SDS_P2;PMS_P1;PMS_P2;Temp;Humidity;BMP_temperature;BMP_pressure;BME280_temperature;BME280_humidity;BME280_pressure;Samples;Min_cycle;Max_cycle;Signal;HPM_P1;HPM_P2
2022/06/05 00:00:03;;;;;;;3.65;2.83;;;20.50;68.00;;;;;;5038636;28;20025;-79
2022/06/05 00:02:40;;;;;;;5.55;3.25;;;20.50;67.90;;;;;;5038596;28;20036;-78
2022/06/05 00:05:12;;;;;;;4.50;3.10;;;20.50;68.20;;;;;;5038283;28;20032;-78
2022/06/05 00:08:15;;;;;;;7.82;3.33;;;20.50;67.90;;;;;;5038282;28;20037;-77
2022/06/05 00:10:54;;;;;;;6.07;2.92;;;20.50;67.80;;;;;;5038080;28;20430;-78
2022/06/05 00:13:30;;;;;;;5.57;3.40;;;20.60;68.20;;;;;;5055663;28;20043;-77
2022/06/05 00:15:57;;;;;;;3.38;2.80;;;20.50;68.30;;;;;;5038105;28;20118;-77
2022/06/05 00:18:22;;;;;;;5.70;2.90;;;20.50;68.30;;;;;;5037831;28;20033;-78
2022/06/05 00:20:48;;;;;;;4.55;3.00;;;20.60;69.20;;;;;;5037634;28;20017;-76
2022/06/05 00:23:14;;;;;;;5.72;3.55;;;20.60;68.50;;;;;;5037602;28;20430;-75
2022/06/05 00:25:56;;;;;;;3.53;3.05;;;20.70;68.30;;;;;;5037804;28;20063;-73
2022/06/05 00:28:38;;;;;;;5.45;3.65;;;20.60;68.20;;;;;;5038054;28;20194;-74
2022/06/05 00:31:22;;;;;;;4.15;2.97;;;20.60;68.40;;;;;;5037712;28;20477;-76
2022/06/05 00:33:48;;;;;;;4.13;3.28;;;20.60;68.50;;;;;;5037870;28;20028;-76
2022/06/05 00:36:25;;;;;;;3.38;3.15;;;20.60;68.90;;;;;;5037673;28;20119;-75
2022/06/05 00:39:18;;;;;;;3.80;2.85;;;20.60;68.70;;;;;;5037719;28;20075;-75
2022/06/05 00:41:58;;;;;;;9.63;3.92;;;20.60;69.00;;;;;;5037840;28;20021;-78
2022/06/05 00:44:34;;;;;;;6.15;4.10;;;20.60;69.10;;;;;;5037929;28;20021;-78
2022/06/05 00:47:01;;;;;;;6.95;3.70;;;20.70;70.20;;;;;;5037690;28;20025;-80
2022/06/05 00:49:34;;;;;;;10.75;4.22;;;20.60;71.40;;;;;;5037652;28;20033;-80
2022/06/05 00:52:01;;;;;;;6.20;4.38;;;20.40;72.50;;;;;;5037604;28;20043;-80
2022/06/05 00:54:27;;;;;;;6.28;4.22;;;20.30;73.40;;;;;;5038019;28;20504;-79
2022/06/05 00:56:53;;;;;;;4.38;3.60;;;20.10;74.10;;;;;;5037036;28;20025;-79
2022/06/05 00:59:20;;;;;;;4.53;3.78;;;20.10;74.50;;;;;;5037244;28;20091;-81
2022/06/05 01:01:47;;;;;;;8.68;3.80;;;20.00;75.10;;;;;;5037540;28;20024;-79
2022/06/05 01:04:13;;;;;;;4.15;3.75;;;20.00;75.30;;;;;;5037175;28;20087;-81
2022/06/05 01:06:41;;;;;;;4.43;3.90;;;20.00;76.20;;;;;;5037167;28;20052;-80
2022/06/05 01:09:08;;;;;;;6.10;3.80;;;20.00;76.10;;;;;;5037567;28;20088;-81
2022/06/05 01:11:52;;;;;;;4.97;4.10;;;20.00;76.70;;;;;;5037397;28;20032;-81
2022/06/05 01:14:48;;;;;;;5.43;4.03;;;19.90;76.20;;;;;;5037319;28;20107;-81
2022/06/05 01:17:24;;;;;;;4.35;3.95;;;19.90;76.10;;;;;;5037206;28;20045;-80
2022/06/05 01:20:01;;;;;;;6.00;4.22;;;19.80;76.60;;;;;;5037347;28;20033;-80
2022/06/05 01:23:03;;;;;;;5.45;4.38;;;19.80;77.10;;;;;;5037212;28;20025;-81
2022/06/05 01:26:05;;;;;;;5.30;4.65;;;19.70;77.40;;;;;;4993803;28;20044;-82
2022/06/05 01:29:08;;;;;;;4.35;3.60;;;19.80;77.20;;;;;;5036779;28;20577;-82
2022/06/05 01:32:00;;;;;;;7.40;4.95;;;19.80;77.10;;;;;;5036069;28;20033;-80
2022/06/05 01:34:29;;;;;;;3.72;3.42;;;19.90;77.80;;;;;;5035943;28;20033;-81
2022/06/05 01:37:23;;;;;;;4.35;3.95;;;19.90;77.10;;;;;;5036346;28;20388;-81
2022/06/05 01:40:05;;;;;;;4.20;3.80;;;19.90;76.70;;;;;;5035918;28;20136;-80
2022/06/05 01:42:48;;;;;;;4.18;3.67;;;20.00;76.50;;;;;;5035753;28;20025;-81
2022/06/05 01:45:22;;;;;;;5.70;3.90;;;20.10;76.80;;;;;;5036740;28;20021;-81
2022/06/05 01:47:52;;;;;;;4.63;3.97;;;20.10;77.30;;;;;;5036233;28;20049;-81
2022/06/05 01:50:37;;;;;;;5.32;3.88;;;20.00;77.80;;;;;;5054236;28;20036;-81
2022/06/05 01:53:27;;;;;;;7.05;4.97;;;20.00;77.20;;;;;;5036940;28;20162;-81
2022/06/05 01:56:30;;;;;;;5.38;4.10;;;20.00;77.20;;;;;;5036223;28;20166;-81
2022/06/05 01:59:17;;;;;;;6.30;4.75;;;20.00;76.90;;;;;;5036364;28;20119;-82
2022/06/05 02:01:53;;;;;;;7.50;5.05;;;20.10;77.50;;;;;;5036294;28;20124;-82
2022/06/05 02:04:21;;;;;;;;;;;20.00;77.80;;;;;;5037207;28;20040;-81
2022/06/05 02:06:54;;;;;;;7.90;6.00;;;20.00;78.20;;;;;;5036455;28;19916;-81
2022/06/05 02:09:36;;;;;;;6.63;5.63;;;19.90;78.40;;;;;;5036311;28;20025;-81
2022/06/05 02:12:04;;;;;;;7.78;5.93;;;19.90;79.00;;;;;;5035653;28;20029;-80
2022/06/05 02:14:30;;;;;;;7.97;5.50;;;19.90;80.30;;;;;;5035386;28;20044;-80
2022/06/05 02:16:58;;;;;;;5.90;5.30;;;19.90;80.80;;;;;;5035880;28;20029;-80
2022/06/05 02:19:23;;;;;;;5.63;4.57;;;19.70;80.50;;;;;;5035869;28;20021;-79
2022/06/05 02:21:54;;;;;;;6.70;4.70;;;19.60;80.60;;;;;;5035640;28;20028;-80
2022/06/05 02:24:20;;;;;;;8.02;5.93;;;19.60;81.20;;;;;;5035471;28;20052;-80
2022/06/05 02:26:45;;;;;;;7.20;5.43;;;19.50;81.00;;;;;;5035700;28;20035;-80
2022/06/05 02:29:19;;;;;;;9.02;4.80;;;19.40;81.10;;;;;;5052058;28;20055;-80
2022/06/05 02:31:44;;;;;;;9.45;6.25;;;19.40;81.40;;;;;;5035971;28;20108;-80
2022/06/05 02:34:47;;;;;;;7.13;6.40;;;19.20;81.90;;;;;;5035609;28;20132;-80
2022/06/05 02:37:41;;;;;;;7.65;6.63;;;19.00;83.00;;;;;;5035295;28;20106;-80
2022/06/05 02:40:30;;;;;;;7.70;6.60;;;18.80;83.80;;;;;;5053678;28;20029;-80
2022/06/05 02:43:07;;;;;;;7.50;6.10;;;18.80;84.10;;;;;;5035447;28;20028;-80
2022/06/05 02:45:46;;;;;;;8.00;6.10;;;18.90;84.10;;;;;;5035429;28;20500;-79
2022/06/05 02:48:28;;;;;;;9.07;8.18;;;18.80;83.60;;;;;;5053248;28;20413;-80
2022/06/05 02:51:24;;;;;;;6.45;5.85;;;18.60;84.10;;;;;;5035312;28;20064;-81
2022/06/05 02:53:55;;;;;;;13.50;8.18;;;18.60;84.40;;;;;;5035146;28;20125;-81
2022/06/05 02:56:22;;;;;;;8.90;8.00;;;18.60;85.00;;;;;;5035454;28;20049;-80
2022/06/05 02:58:55;;;;;;;11.18;8.77;;;18.30;85.60;;;;;;5052979;28;20509;-80
2022/06/05 03:04:09;;;;;;;11.27;9.00;;;17.80;88.40;;;;;;5053301;28;20106;-80
2022/06/05 03:06:37;;;;;;;13.57;8.82;;;17.70;88.80;;;;;;5035633;28;20031;-80
2022/06/05 03:09:04;;;;;;;9.52;8.18;;;17.70;88.50;;;;;;5034731;28;20094;-81
2022/06/05 03:11:29;;;;;;;9.23;7.90;;;17.80;89.10;;;;;;5035401;28;20055;-80
2022/06/05 03:13:57;;;;;;;8.48;7.57;;;18.00;88.00;;;;;;5035503;28;20029;-80
2022/06/05 03:16:28;;;;;;;11.77;8.40;;;18.10;87.00;;;;;;5035033;28;20029;-80
2022/06/05 03:18:53;;;;;;;14.52;7.45;;;18.10;86.40;;;;;;5032004;28;20053;-80
2022/06/05 03:21:19;;;;;;;10.98;8.80;;;18.20;86.50;;;;;;5034786;28;20509;-80
2022/06/05 03:23:45;;;;;;;13.10;8.77;;;18.20;86.20;;;;;;5034844;28;20462;-79
2022/06/05 03:26:11;;;;;;;13.05;9.00;;;18.10;86.50;;;;;;5034991;28;20021;-79
2022/06/05 03:28:38;;;;;;;15.88;9.27;;;18.20;86.60;;;;;;5035150;28;20128;-80
2022/06/05 03:31:05;;;;;;;11.80;7.72;;;18.10;87.20;;;;;;5034875;28;20033;-81
2022/06/05 03:33:30;;;;;;;11.98;8.80;;;18.10;87.30;;;;;;5035505;28;20033;-80
2022/06/05 03:35:57;;;;;;;10.23;8.98;;;18.10;86.80;;;;;;5035081;28;20021;-80
2022/06/05 03:38:23;;;;;;;10.02;9.07;;;18.20;86.60;;;;;;5034857;28;20033;-80
2022/06/05 03:40:49;;;;;;;11.93;9.73;;;18.10;86.50;;;;;;5034642;28;20496;-80
2022/06/05 03:43:15;;;;;;;13.50;9.65;;;18.10;86.30;;;;;;5034691;28;20540;-80
2022/06/05 03:45:43;;;;;;;10.10;7.55;;;18.10;86.80;;;;;;5052621;28;20017;-80
2022/06/05 03:48:10;;;;;;;10.07;9.00;;;18.10;86.60;;;;;;5051203;28;20056;-80
2022/06/05 03:50:40;;;;;;;10.68;9.65;;;18.20;86.60;;;;;;5052299;28;20535;-81
2022/06/05 03:53:07;;;;;;;10.50;7.88;;;18.10;86.70;;;;;;5035110;28;20063;-81
2022/06/05 03:55:32;;;;;;;12.20;8.18;;;18.10;87.20;;;;;;5035404;28;20052;-81
2022/06/05 03:58:01;;;;;;;11.25;9.05;;;18.10;86.80;;;;;;5034802;28;20448;-80
2022/06/05 04:00:26;;;;;;;10.15;7.70;;;18.20;86.40;;;;;;5035409;28;20025;-81
2022/06/05 04:02:53;;;;;;;9.95;8.43;;;18.20;86.20;;;;;;5047902;28;20033;-80
2022/06/05 04:05:21;;;;;;;10.23;9.13;;;18.30;86.10;;;;;;5056996;28;20007;-80
2022/06/05 04:07:47;;;;;;;12.20;10.02;;;18.40;85.80;;;;;;5062295;28;20037;-80
2022/06/05 04:10:19;;;;;;;12.23;9.82;;;18.40;85.90;;;;;;5060623;28;20025;-79
2022/06/05 04:12:47;;;;;;;10.88;8.82;;;18.40;86.10;;;;;;5054867;28;20075;-79
2022/06/05 04:15:14;;;;;;;11.93;9.02;;;18.40;86.20;;;;;;5038523;28;20017;-79
2022/06/05 04:17:40;;;;;;;10.90;9.73;;;18.40;85.70;;;;;;5056062;28;20024;-80
2022/06/05 04:20:07;;;;;;;13.43;9.25;;;18.40;85.20;;;;;;5037848;28;20031;-79
2022/06/05 04:22:37;;;;;;;11.15;10.05;;;18.40;85.10;;;;;;5037945;28;20025;-79
2022/06/05 04:25:05;;;;;;;12.93;9.52;;;18.30;85.30;;;;;;5037768;28;20025;-79
2022/06/05 04:27:31;;;;;;;12.38;10.15;;;18.10;85.80;;;;;;5037304;28;20054;-79
2022/06/05 04:29:59;;;;;;;15.07;11.55;;;18.10;86.20;;;;;;5037918;28;20022;-79
2022/06/05 04:32:25;;;;;;;13.80;11.18;;;18.10;86.40;;;;;;5037964;28;20056;-79
2022/06/05 04:34:51;;;;;;;13.85;11.93;;;17.90;87.20;;;;;;5038115;28;20139;-79
2022/06/05 04:37:18;;;;;;;14.05;11.77;;;17.70;87.90;;;;;;5055384;28;20074;-79
2022/06/05 04:39:43;;;;;;;15.40;12.18;;;17.70;88.40;;;;;;5037471;28;20128;-79
2022/06/05 04:42:09;;;;;;;13.55;11.90;;;17.70;88.20;;;;;;5037682;28;20025;-79
2022/06/05 04:44:35;;;;;;;13.05;11.75;;;17.70;87.90;;;;;;5037589;28;20025;-78
2022/06/05 04:47:01;;;;;;;14.20;11.88;;;17.70;88.10;;;;;;5037318;28;20386;-79
2022/06/05 04:49:27;;;;;;;14.02;11.45;;;17.80;87.90;;;;;;5055434;28;20029;-80
2022/06/05 04:51:52;;;;;;;11.85;9.90;;;17.90;87.60;;;;;;5037567;28;20025;-81
2022/06/05 04:54:18;;;;;;;13.35;11.25;;;18.00;87.40;;;;;;5037108;28;20024;-81
2022/06/05 04:56:45;;;;;;;15.55;13.48;;;18.10;87.40;;;;;;5037153;28;20065;-81
2022/06/05 04:59:11;;;;;;;18.08;14.75;;;18.00;87.70;;;;;;5037604;28;20139;-81
2022/06/05 05:01:39;;;;;;;18.25;13.35;;;17.70;90.40;;;;;;5037521;28;20382;-80
2022/06/05 05:04:08;;;;;;;17.13;10.65;;;17.20;92.30;;;;;;5037275;28;20067;-80
2022/06/05 05:06:36;;;;;;;8.40;6.63;;;17.00;95.10;;;;;;5041694;28;20021;-79
2022/06/05 05:09:03;;;;;;;14.48;10.77;;;17.00;94.20;;;;;;5037291;28;20040;-80
2022/06/05 05:11:29;;;;;;;17.58;11.68;;;17.10;95.00;;;;;;5037254;28;20021;-80
2022/06/05 05:13:57;;;;;;;12.95;9.63;;;17.10;95.20;;;;;;5037252;28;20029;-80
2022/06/05 05:16:24;;;;;;;11.88;9.50;;;17.10;95.60;;;;;;5053977;28;20063;-80
2022/06/05 05:18:50;;;;;;;9.43;7.57;;;17.20;95.00;;;;;;5037034;28;20470;-80
2022/06/05 05:21:20;;;;;;;10.18;7.93;;;17.20;94.50;;;;;;5053648;28;20039;-80
2022/06/05 05:23:46;;;;;;;7.25;5.90;;;17.30;94.60;;;;;;5037419;28;20024;-80
2022/06/05 05:26:16;;;;;;;5.45;3.97;;;17.40;94.70;;;;;;5037150;28;20112;-81
2022/06/05 05:28:42;;;;;;;5.60;3.47;;;17.40;93.50;;;;;;5037894;28;20029;-81
2022/06/05 05:31:11;;;;;;;4.35;2.40;;;17.40;92.60;;;;;;5037380;28;20028;-81
2022/06/05 05:33:38;;;;;;;3.03;2.08;;;17.50;90.70;;;;;;5037822;28;20041;-81
2022/06/05 05:36:04;;;;;;;3.67;1.90;;;17.50;89.40;;;;;;5037039;28;20017;-80
2022/06/05 05:38:30;;;;;;;5.75;1.88;;;17.50;89.60;;;;;;5037172;28;20025;-81
2022/06/05 05:43:41;;;;;;;4.55;2.30;;;17.60;87.90;;;;;;5053556;28;20094;-81
2022/06/05 05:46:10;;;;;;;6.32;2.15;;;17.60;88.50;;;;;;5036882;28;20025;-81
2022/06/05 05:48:39;;;;;;;5.85;1.88;;;17.50;88.40;;;;;;5036182;28;20056;-82
2022/06/05 05:51:13;;;;;;;7.43;1.90;;;17.40;88.00;;;;;;5037009;28;20029;-80
2022/06/05 05:53:39;;;;;;;5.37;1.97;;;17.30;88.50;;;;;;5054244;28;20428;-81
2022/06/05 05:56:07;;;;;;;6.20;1.90;;;17.30;88.60;;;;;;5036597;28;20021;-80
2022/06/05 05:58:32;;;;;;;4.50;1.60;;;17.20;88.70;;;;;;5036083;28;20120;-81
2022/06/05 06:01:08;;;;;;;5.55;1.35;;;17.20;87.70;;;;;;5036278;28;20052;-80
2022/06/05 06:03:34;;;;;;;10.13;1.50;;;17.20;86.10;;;;;;5036873;28;20036;-81
2022/06/05 06:06:02;;;;;;;2.55;1.17;;;17.30;85.70;;;;;;5035821;28;20036;-80
2022/06/05 06:08:28;;;;;;;2.70;1.25;;;17.30;85.70;;;;;;5036117;28;20032;-79
2022/06/05 06:10:54;;;;;;;4.40;1.23;;;17.30;85.70;;;;;;5035930;28;20078;-80
2022/06/05 06:13:20;;;;;;;3.28;1.30;;;17.30;85.90;;;;;;5035730;28;20033;-80
2022/06/05 06:15:45;;;;;;;6.93;1.40;;;17.30;86.40;;;;;;5035853;28;20021;-79
2022/06/05 06:18:11;;;;;;;5.45;1.70;;;17.30;86.80;;;;;;5035876;28;20429;-80
2022/06/05 06:20:38;;;;;;;4.32;1.50;;;17.20;87.70;;;;;;5035800;28;20126;-80
2022/06/05 06:23:03;;;;;;;2.97;1.80;;;17.30;88.00;;;;;;5035562;28;20029;-80
2022/06/05 06:25:29;;;;;;;4.13;1.77;;;17.30;88.40;;;;;;5035334;28;20512;-81
2022/06/05 06:27:55;;;;;;;4.43;1.88;;;17.30;89.20;;;;;;5019386;28;20044;-84
2022/06/05 06:30:20;;;;;;;4.35;2.30;;;17.20;90.60;;;;;;5035928;28;20029;-82
2022/06/05 06:32:46;;;;;;;5.60;2.15;;;17.10;90.10;;;;;;5036511;28;20436;-81
2022/06/05 06:35:20;;;;;;;6.80;2.40;;;17.10;90.00;;;;;;5037710;28;20064;-92
2022/06/05 06:37:46;;;;;;;6.65;2.17;;;17.20;89.60;;;;;;5055632;28;20053;-88
2022/06/05 06:40:12;;;;;;;5.00;2.42;;;17.10;89.80;;;;;;5039657;28;20032;-91
2022/06/05 06:42:37;;;;;;;3.80;2.28;;;17.20;89.90;;;;;;5038800;28;20036;-87
2022/06/05 06:45:03;;;;;;;6.25;2.53;;;17.30;89.60;;;;;;5055016;28;20073;-89
2022/06/05 06:47:51;;;;;;;4.38;2.50;;;17.40;89.10;;;;;;5037351;28;20112;-87
2022/06/05 06:50:17;;;;;;;4.25;1.70;;;17.50;89.00;;;;;;5051939;28;20064;-83
2022/06/05 06:52:44;;;;;;;3.08;1.80;;;17.60;88.10;;;;;;5035480;28;20043;-82
2022/06/05 06:55:16;;;;;;;2.83;1.90;;;17.70;87.70;;;;;;5035138;28;20102;-83
2022/06/05 06:57:44;;;;;;;3.75;1.73;;;17.90;87.70;;;;;;5035594;28;20078;-82
2022/06/05 07:00:14;;;;;;;4.63;1.88;;;18.00;87.20;;;;;;5035466;28;20021;-81
2022/06/05 07:02:40;;;;;;;2.92;1.75;;;18.10;87.10;;;;;;5035463;28;20093;-81
2022/06/05 07:05:08;;;;;;;2.90;1.90;;;18.40;87.00;;;;;;5035030;28;20116;-80
2022/06/05 07:07:34;;;;;;;4.53;2.20;;;18.60;87.00;;;;;;5018446;28;20033;-81
2022/06/05 07:09:59;;;;;;;3.00;2.05;;;18.70;87.00;;;;;;5035822;28;20029;-81
2022/06/05 07:12:25;;;;;;;2.55;1.55;;;18.90;86.50;;;;;;5035815;28;20476;-82
2022/06/05 07:14:51;;;;;;;7.40;1.90;;;19.00;85.50;;;;;;5035406;28;20112;-80
2022/06/05 07:17:16;;;;;;;3.45;1.42;;;19.20;85.50;;;;;;5035146;28;20537;-80
2022/06/05 07:19:42;;;;;;;2.75;1.73;;;19.30;85.00;;;;;;5035882;28;20025;-82
2022/06/05 07:22:07;;;;;;;3.20;2.00;;;19.40;84.70;;;;;;5035388;28;20022;-82
2022/06/05 07:24:33;;;;;;;4.97;2.03;;;19.60;84.80;;;;;;5035290;28;20468;-81
2022/06/05 07:26:59;;;;;;;3.25;1.70;;;19.70;84.50;;;;;;5035127;28;20017;-82
2022/06/05 07:29:25;;;;;;;2.28;1.45;;;20.00;83.80;;;;;;5035267;28;20108;-81
2022/06/05 07:31:51;;;;;;;4.45;1.80;;;20.10;82.50;;;;;;5035202;28;20083;-81
2022/06/05 07:34:17;;;;;;;4.90;1.70;;;20.30;81.50;;;;;;5035251;28;20420;-81
2022/06/05 07:36:42;;;;;;;3.40;1.70;;;20.30;80.40;;;;;;5035351;28;20013;-82
2022/06/05 07:39:08;;;;;;;4.50;1.45;;;20.50;80.10;;;;;;5035511;28;20025;-81
2022/06/05 07:41:38;;;;;;;6.22;1.70;;;20.50;77.80;;;;;;5038417;28;20087;-81
2022/06/05 07:44:05;;;;;;;4.35;1.52;;;20.60;77.60;;;;;;5040155;28;20028;-82
2022/06/05 07:46:33;;;;;;;7.32;1.73;;;20.70;77.40;;;;;;5041468;28;20115;-80
2022/06/05 07:48:58;;;;;;;8.40;1.40;;;20.80;77.40;;;;;;5039624;28;20129;-83
2022/06/05 07:54:27;;;;;;;3.40;1.90;;;21.00;75.50;;;;;;5055889;28;20036;-74
2022/06/05 07:57:01;;;;;;;3.03;1.60;;;21.10;74.90;;;;;;5055175;28;20032;-74
2022/06/05 07:59:28;;;;;;;4.88;1.75;;;21.30;73.90;;;;;;5038444;28;20083;-73
2022/06/05 08:01:58;;;;;;;5.38;1.50;;;21.30;73.60;;;;;;5038361;28;20167;-74
2022/06/05 08:04:25;;;;;;;3.70;1.55;;;21.40;73.90;;;;;;5038458;28;20475;-74
2022/06/05 08:06:51;;;;;;;5.93;1.65;;;21.30;73.80;;;;;;5038370;28;20024;-75
2022/06/05 08:09:17;;;;;;;9.10;1.98;;;21.30;74.70;;;;;;5037923;28;20056;-75
2022/06/05 08:11:45;;;;;;;2.72;1.60;;;21.30;74.70;;;;;;5038121;28;20021;-75
2022/06/05 08:14:13;;;;;;;2.65;1.67;;;21.30;74.20;;;;;;5055904;28;20032;-75
2022/06/05 08:16:43;;;;;;;6.57;2.47;;;21.20;74.30;;;;;;5038504;28;20075;-75
2022/06/05 08:19:14;;;;;;;2.00;1.38;;;21.20;75.80;;;;;;5057222;28;20032;-74
2022/06/05 08:21:41;;;;;;;2.75;2.00;;;21.20;76.00;;;;;;5037809;28;20466;-75
2022/06/05 08:24:07;;;;;;;4.35;1.80;;;21.30;77.40;;;;;;5038039;28;20029;-75
2022/06/05 08:26:34;;;;;;;2.45;1.67;;;21.40;75.30;;;;;;5037794;28;20028;-75
2022/06/05 08:29:00;;;;;;;7.68;2.03;;;21.50;74.60;;;;;;5021198;28;20047;-75
2022/06/05 08:31:29;;;;;;;4.72;2.20;;;21.70;74.40;;;;;;5037475;28;20115;-74
2022/06/05 08:33:56;;;;;;;2.60;1.75;;;21.80;73.60;;;;;;5038219;28;20048;-75
2022/06/05 08:36:22;;;;;;;5.93;2.03;;;21.80;74.30;;;;;;5037725;28;20072;-75
2022/06/05 08:41:52;;;;;;;4.55;1.92;;;21.80;73.50;;;;;;5055826;28;20079;-75
2022/06/05 08:44:46;;;;;;;12.05;2.05;;;21.70;72.30;;;;;;5042030;28;20025;-74
2022/06/05 08:47:20;;;;;;;3.55;1.67;;;21.60;72.90;;;;;;5035247;28;20056;-75
2022/06/05 08:50:01;;;;;;;3.53;1.63;;;21.70;73.00;;;;;;5018299;28;20029;-75
2022/06/05 08:52:48;;;;;;;5.85;2.42;;;21.70;72.50;;;;;;5017996;28;20033;-75
2022/06/05 08:55:25;;;;;;;4.75;2.28;;;21.60;73.80;;;;;;5017700;28;20026;-75
2022/06/05 08:58:15;;;;;;;3.30;2.15;;;21.50;74.20;;;;;;5034234;28;20025;-74
2022/06/05 09:01:04;;;;;;;5.50;2.70;;;21.60;74.70;;;;;;5017558;28;20022;-75
2022/06/05 09:03:58;;;;;;;3.45;1.98;;;21.70;73.70;;;;;;5017664;28;20030;-75
2022/06/05 09:06:48;;;;;;;5.97;2.28;;;21.80;73.00;;;;;;5000939;28;20025;-75
2022/06/05 09:09:19;;;;;;;5.38;2.85;;;21.60;74.10;;;;;;5017158;28;20057;-75
2022/06/05 09:11:54;;;;;;;7.47;2.53;;;21.60;73.60;;;;;;5017029;28;20044;-75
2022/06/05 09:14:28;;;;;;;4.53;2.53;;;21.40;73.50;;;;;;5017168;28;20486;-74
2022/06/05 09:17:01;;;;;;;4.07;2.70;;;21.20;74.40;;;;;;5017182;28;20108;-74
2022/06/05 09:19:31;;;;;;;5.13;2.53;;;21.10;74.90;;;;;;5017219;28;20032;-74
2022/06/05 09:22:49;;;;;;;10.05;2.70;;;20.80;75.80;;;;;;5017078;28;20021;-85
2022/06/05 09:25:43;;;;;;;8.63;2.90;;;20.60;76.40;;;;;;4956182;28;20034;-82
2022/06/05 09:28:35;;;;;;;6.55;2.90;;;20.40;78.90;;;;;;5017143;28;20037;-82
2022/06/05 09:31:21;;;;;;;7.35;3.08;;;20.30;79.90;;;;;;5017383;28;20029;-82
2022/06/05 09:33:52;;;;;;;4.78;2.92;;;20.00;81.70;;;;;;5034645;28;20042;-81
2022/06/05 09:36:23;;;;;;;6.90;3.40;;;19.90;82.70;;;;;;5017267;28;20160;-82
2022/06/05 09:39:01;;;;;;;5.35;2.95;;;19.90;82.70;;;;;;5017050;28;20025;-82
2022/06/05 09:41:41;;;;;;;5.90;2.92;;;20.00;82.90;;;;;;5017199;28;20033;-81
2022/06/05 09:44:22;;;;;;;4.75;2.95;;;20.00;83.70;;;;;;5017163;28;20022;-81
2022/06/05 09:47:00;;;;;;;5.85;2.95;;;20.10;83.80;;;;;;5016767;28;20173;-82
2022/06/05 09:49:51;;;;;;;7.03;3.13;;;20.10;83.60;;;;;;5015274;28;20136;-83
2022/06/05 09:52:27;;;;;;;7.07;2.70;;;20.00;83.30;;;;;;5016535;28;20076;-81
2022/06/05 09:55:06;;;;;;;5.57;2.80;;;20.00;83.10;;;;;;5000603;28;20116;-82
2022/06/05 10:00:48;;;;;;;5.43;2.13;;;19.80;82.80;;;;;;5034215;28;20037;-82
2022/06/05 10:03:21;;;;;;;5.07;2.30;;;19.70;82.40;;;;;;5015931;28;20033;-82
2022/06/05 10:06:25;;;;;;;7.32;2.10;;;19.50;80.90;;;;;;5031267;28;20033;-83
2022/06/05 10:09:13;;;;;;;5.13;2.40;;;19.40;80.90;;;;;;4993800;28;20037;-83
2022/06/05 10:11:50;;;;;;;5.45;3.03;;;19.40;82.20;;;;;;5016306;28;20466;-82
2022/06/05 10:14:31;;;;;;;5.78;2.60;;;19.30;82.30;;;;;;5034162;28;20161;-83
2022/06/05 10:17:20;;;;;;;3.70;2.53;;;19.30;82.90;;;;;;5015752;28;20030;-82
2022/06/05 10:20:17;;;;;;;3.38;2.75;;;19.30;83.80;;;;;;5016441;28;20026;-82
2022/06/05 10:22:46;;;;;;;7.35;3.65;;;19.30;84.90;;;;;;5033812;28;20520;-82
2022/06/05 10:25:23;;;;;;;7.05;3.80;;;19.30;86.00;;;;;;5033415;28;20113;-82
2022/06/05 10:27:51;;;;;;;7.88;4.00;;;19.30;87.00;;;;;;5016384;28;20033;-82
2022/06/05 10:30:19;;;;;;;6.20;3.35;;;19.30;87.40;;;;;;5016332;28;20090;-82
2022/06/05 10:32:50;;;;;;;9.27;3.50;;;19.30;87.40;;;;;;5015580;28;20029;-82
2022/06/05 10:35:26;;;;;;;7.82;2.70;;;19.30;86.60;;;;;;5015795;28;20028;-82
2022/06/05 10:38:27;;;;;;;6.18;2.70;;;19.30;86.60;;;;;;5016903;28;20021;-81
2022/06/05 10:40:58;;;;;;;7.18;3.00;;;19.40;86.10;;;;;;5033343;28;20393;-83
2022/06/05 10:43:30;;;;;;;6.20;2.85;;;19.50;84.90;;;;;;5000014;28;20168;-83
2022/06/05 10:46:04;;;;;;;5.15;2.60;;;19.70;84.00;;;;;;5016037;28;20029;-83
2022/06/05 10:48:46;;;;;;;5.07;2.85;;;19.80;82.90;;;;;;5029291;28;20045;-83
2022/06/05 10:51:35;;;;;;;5.38;2.75;;;19.80;84.70;;;;;;5035317;28;20032;-83
2022/06/05 10:54:07;;;;;;;5.63;2.28;;;19.70;84.30;;;;;;5035641;28;20037;-83
2022/06/05 10:56:50;;;;;;;5.57;2.97;;;19.80;82.60;;;;;;5035482;28;20021;-83
2022/06/05 10:59:23;;;;;;;5.88;3.10;;;20.00;82.40;;;;;;5035538;28;20123;-83
2022/06/05 11:02:18;;;;;;;9.15;3.00;;;20.20;83.30;;;;;;5035237;28;20028;-83
2022/06/05 11:04:49;;;;;;;5.78;2.67;;;20.40;83.50;;;;;;5035289;28;20032;-83
2022/06/05 11:07:47;;;;;;;5.50;3.03;;;20.70;83.60;;;;;;5035131;28;20033;-82
2022/06/05 11:13:39;;;;;;;4.60;2.92;;;21.00;83.60;;;;;;5038181;28;20063;-84
2022/06/05 11:16:21;;;;;;;4.97;2.20;;;21.40;82.20;;;;;;5052293;28;20036;-83
2022/06/05 11:19:27;;;;;;;5.03;2.50;;;21.50;80.50;;;;;;5035340;28;20550;-84
2022/06/05 11:21:54;;;;;;;;;;;21.60;79.70;;;;;;5035163;28;20021;-85
2022/06/05 11:24:50;;;;;;;5.93;2.83;;;21.50;77.70;;;;;;5034704;28;19958;-84
2022/06/05 11:27:34;;;;;;;4.93;2.58;;;21.30;79.20;;;;;;5002146;28;20424;-83
2022/06/05 11:30:34;;;;;;;4.78;1.73;;;21.30;73.70;;;;;;5034901;28;20142;-83
2022/06/05 11:33:13;;;;;;;4.57;1.98;;;21.20;73.70;;;;;;5034949;28;20025;-82
2022/06/05 11:36:07;;;;;;;5.78;2.38;;;21.00;75.20;;;;;;5053586;28;20025;-82
2022/06/05 11:38:59;;;;;;;5.20;1.73;;;21.00;75.00;;;;;;5010804;28;20038;-82
2022/06/05 11:41:41;;;;;;;4.43;1.92;;;21.00;75.30;;;;;;4994515;28;20526;-83
2022/06/05 11:44:35;;;;;;;6.82;2.10;;;21.00;76.70;;;;;;4994260;28;20030;-84
2022/06/05 11:47:04;;;;;;;8.10;2.50;;;21.00;77.50;;;;;;4994695;28;20430;-78
2022/06/05 11:49:56;;;;;;;7.65;2.47;;;20.80;77.90;;;;;;5007755;28;20095;-83
2022/06/05 11:52:38;;;;;;;5.60;2.38;;;20.80;78.90;;;;;;4994667;28;20565;-83
2022/06/05 11:55:22;;;;;;;5.72;2.30;;;20.60;78.40;;;;;;4994837;28;20034;-80
2022/06/05 11:58:24;;;;;;;8.30;3.05;;;20.50;79.40;;;;;;4993846;28;20034;-79
2022/06/05 12:01:08;;;;;;;5.97;2.60;;;20.40;80.30;;;;;;4948343;28;20045;-81
2022/06/05 12:03:44;;;;;;;12.57;2.53;;;20.40;81.50;;;;;;4963534;28;20049;-82
2022/06/05 12:06:39;;;;;;;5.70;2.40;;;20.40;81.80;;;;;;4994134;28;20081;-81
2022/06/05 12:09:19;;;;;;;6.10;2.72;;;20.40;81.30;;;;;;5020462;28;20045;-77
2022/06/05 12:12:24;;;;;;;6.20;2.60;;;20.40;80.10;;;;;;5034277;28;20047;-79
2022/06/05 12:15:29;;;;;;;4.55;2.30;;;20.40;79.80;;;;;;5036230;28;20120;-87
2022/06/05 12:19:10;;;;;;;5.05;2.50;;;20.30;80.70;;;;;;5053432;28;20096;-87
2022/06/05 12:22:18;;;;;;;3.47;2.17;;;20.40;80.70;;;;;;5020811;28;20025;-88
2022/06/05 12:26:01;;;;;;;4.18;2.40;;;20.40;80.60;;;;;;5063914;28;20484;-87
2022/06/05 12:29:22;;;;;;;4.57;2.25;;;20.50;80.10;;;;;;5063120;28;20041;-89
2022/06/05 12:32:22;;;;;;;5.55;2.30;;;20.60;79.00;;;;;;5057478;28;20128;-81
2022/06/05 12:34:54;;;;;;;6.40;2.20;;;20.50;78.50;;;;;;5035499;28;20087;-81
2022/06/05 12:37:39;;;;;;;11.07;2.22;;;20.50;77.30;;;;;;5038580;28;20448;-90
2022/06/05 12:40:15;;;;;;;5.97;2.42;;;20.40;76.90;;;;;;5037932;28;20444;-81
2022/06/05 12:42:54;;;;;;;4.07;2.35;;;20.40;77.60;;;;;;5037758;28;20029;-80
2022/06/05 12:45:29;;;;;;;3.33;1.98;;;20.50;78.10;;;;;;5037529;28;20385;-82
2022/06/05 12:48:16;;;;;;;6.32;2.45;;;20.40;75.60;;;;;;5037425;28;20451;-83
2022/06/05 12:50:52;;;;;;;7.97;2.58;;;20.30;75.80;;;;;;5033837;28;20020;-83
2022/06/05 12:53:32;;;;;;;4.78;2.00;;;20.20;74.80;;;;;;5037772;28;20090;-83
2022/06/05 12:56:07;;;;;;;5.45;1.80;;;20.20;73.80;;;;;;5038054;28;20025;-84
2022/06/05 12:58:52;;;;;;;3.88;2.10;;;20.10;75.50;;;;;;5055646;28;20104;-83
2022/06/05 13:01:23;;;;;;;5.40;2.40;;;20.10;75.60;;;;;;5037947;28;20029;-82
2022/06/05 13:03:55;;;;;;;3.65;2.00;;;20.00;75.50;;;;;;5037551;28;20082;-84
2022/06/05 13:06:39;;;;;;;6.78;2.17;;;19.90;74.80;;;;;;5038097;28;20550;-84
2022/06/05 13:09:42;;;;;;;5.72;2.38;;;19.90;75.70;;;;;;5037677;28;20108;-84
2022/06/05 13:12:39;;;;;;;6.25;2.42;;;19.90;75.20;;;;;;5038426;28;20021;-83
2022/06/05 13:15:23;;;;;;;4.65;2.40;;;19.90;76.00;;;;;;5038102;28;20493;-85
2022/06/05 13:18:19;;;;;;;5.45;2.17;;;19.90;76.10;;;;;;5037659;28;20017;-83
2022/06/05 13:21:04;;;;;;;3.70;2.15;;;19.90;76.00;;;;;;5055561;28;20408;-83
2022/06/05 13:23:56;;;;;;;8.07;2.90;;;19.90;77.00;;;;;;5037858;28;20445;-82
2022/06/05 13:26:34;;;;;;;6.95;2.17;;;19.90;75.70;;;;;;5037062;28;20474;-83
2022/06/05 13:29:30;;;;;;;5.97;2.13;;;20.00;76.30;;;;;;5034411;28;20509;-79
2022/06/05 13:32:11;;;;;;;4.00;2.28;;;20.00;76.20;;;;;;5033805;28;20021;-82
2022/06/05 13:34:55;;;;;;;4.88;2.70;;;20.00;76.20;;;;;;5036998;28;20556;-82
2022/06/05 13:37:38;;;;;;;5.32;2.40;;;20.00;75.80;;;;;;5035941;28;20025;-81
2022/06/05 13:40:16;;;;;;;7.28;2.10;;;20.00;74.40;;;;;;5036826;28;20033;-80
2022/06/05 13:42:49;;;;;;;8.25;2.47;;;20.10;74.60;;;;;;5036744;28;20056;-80
2022/06/05 13:45:45;;;;;;;4.30;2.00;;;20.20;74.40;;;;;;5036716;28;20091;-82